Dover Air Force Base
KDOV : now visible

Airfield :











YOU CAN JOIN US ON...

 
LOGIN :

Register | Disclaimer

   EN    FR    IT 

 









Legend :    VFR   Marginal VFR   IFR   Intensive IFR   Very Intensive IFR
Visi :
Ceiling :
>= 8 km
>= 3000ft
5 to 8 km
1000 to 3000 ft
1500m to 5 km
500 to 1000 ft
800 to 1500m
200 to 500 ft
< 800m
< 200 ft
Symbols :   Thunderstorms  Fog  Heavy snow  Heavy precipitations  Wind > 20 kt






- Airport Elevation : 24 ft


KDOV - Dover Air Force Base

CURRENT METAR :
  • 070225Z AUTO 00000KT 3SM -RA BR OVC005 13/13 A3021 RMK AO2 RAE0159DZB0159E06RAB06 SLP234

EXPIRED METARs :
  • 070155Z AUTO 00000KT 6SM -RA OVC007 14/14 A3021 RMK AO2 RAB0056E08RAB11 SLP234 P0005 T01430143
  • 070111Z AUTO 18006KT 10SM -RA OVC008 14/14 A3021 RMK AO2 RAB0056E08RAB11 SLP234
  • 070108Z AUTO 18007KT 10SM OVC008 14/14 A3021 RMK AO2 RAB0056E08 SLP234
  • 070056Z AUTO 17006KT 10SM -RA OVC008 14/14 A3021 RMK AO2 RAB56 SLP234
  • 070033Z AUTO 17006KT 10SM OVC008 14/14 A3021 RMK AO2 DZB14E33 SLP234
  • 070014Z AUTO 17005KT 10SM -DZ OVC008 14/14 A3021 RMK AO2 DZB14 SLP234
  • 062355Z AUTO 16005KT 10SM OVC009 14/14 A3020 RMK AO2 RAE08 SLP231 P0000 60023 T01410141 10145 20121 50000

TAF AMD TAF KDOV
Valid from the 07 at 02:00 until the 08 at 06:00 UTC


070230Z 0702/0806 19006KT 6000 RA OVC005 QNH3022INS
TEMPO 0702/0706 OVC007
BECMG 0706/0707 20006KT 8000 -SHRA OVC005 QNH3020INS
BECMG 0709/0710 22006KT 8000 -SHRA OVC004 QNH3013INS
BECMG 0719/0720 23006KT 9999 NSW OVC004 QNH3012INS
BECMG 0723/0724 25006KT 8000 -SHRA OVC004 QNH3012INS WND 31009KT AFT 0802 TX15/0717Z TN13/0702Z
KZDC FIR / North America



MET'MAP, your aeronautical weather chart ! - Copyright ORBIFLY December 2007 - Disclaimer

ORBIFLY MET'MAP TEAM :

Programming & Development : Alexandra Zaïnal
Original concept : Baudouin d'Aumeries
Technical & hardware support : Manuel Goepfert
Assistance : Marc-Olivier Méhu




SOURCES & CREDITS :

   NOAA       Earth
Advisory